sensor_id;sensor_type;location;lat;lon;timestamp;temperature;humidity
1137;DHT22;557;48.466;7.950;2023-02-13T00:01:41;1.50;99.90
1137;DHT22;557;48.466;7.950;2023-02-13T00:04:28;1.50;99.90
1137;DHT22;557;48.466;7.950;2023-02-13T00:07:16;1.50;99.90
1137;DHT22;557;48.466;7.950;2023-02-13T00:10:05;1.40;99.90
1137;DHT22;557;48.466;7.950;2023-02-13T00:12:53;1.40;99.90
1137;DHT22;557;48.466;7.950;2023-02-13T00:15:40;1.30;99.90
1137;DHT22;557;48.466;7.950;2023-02-13T00:18:28;1.20;99.90
1137;DHT22;557;48.466;7.950;2023-02-13T00:21:16;1.20;99.90
1137;DHT22;557;48.466;7.950;2023-02-13T00:24:04;1.10;99.90
1137;DHT22;557;48.466;7.950;2023-02-13T00:26:53;1.10;99.90
1137;DHT22;557;48.466;7.950;2023-02-13T00:29:40;1.00;99.90
1137;DHT22;557;48.466;7.950;2023-02-13T00:32:28;1.00;99.90
1137;DHT22;557;48.466;7.950;2023-02-13T00:35:16;1.10;99.90
1137;DHT22;557;48.466;7.950;2023-02-13T00:38:04;1.20;99.90
1137;DHT22;557;48.466;7.950;2023-02-13T00:40:51;1.20;99.90
1137;DHT22;557;48.466;7.950;2023-02-13T00:43:40;1.20;99.90
1137;DHT22;557;48.466;7.950;2023-02-13T00:46:27;1.20;99.90
1137;DHT22;557;48.466;7.950;2023-02-13T00:49:14;1.20;99.90
1137;DHT22;557;48.466;7.950;2023-02-13T00:52:02;1.20;99.90
1137;DHT22;557;48.466;7.950;2023-02-13T00:54:49;1.20;99.90
1137;DHT22;557;48.466;7.950;2023-02-13T00:57:36;1.30;99.90
1137;DHT22;557;48.466;7.950;2023-02-13T01:00:25;1.40;99.90
1137;DHT22;557;48.466;7.950;2023-02-13T01:03:13;1.30;99.90
1137;DHT22;557;48.466;7.950;2023-02-13T01:06:00;1.30;99.90
1137;DHT22;557;48.466;7.950;2023-02-13T01:08:48;1.30;99.90
1137;DHT22;557;48.466;7.950;2023-02-13T01:11:35;1.30;99.90
1137;DHT22;557;48.466;7.950;2023-02-13T01:14:22;1.20;99.90
1137;DHT22;557;48.466;7.950;2023-02-13T01:17:11;1.20;99.90
1137;DHT22;557;48.466;7.950;2023-02-13T01:19:58;1.20;99.90
1137;DHT22;557;48.466;7.950;2023-02-13T01:22:46;1.10;99.90
1137;DHT22;557;48.466;7.950;2023-02-13T01:25:33;1.00;99.90
1137;DHT22;557;48.466;7.950;2023-02-13T01:28:20;1.10;99.90
1137;DHT22;557;48.466;7.950;2023-02-13T01:31:08;1.00;99.90
1137;DHT22;557;48.466;7.950;2023-02-13T01:33:57;0.90;99.90
1137;DHT22;557;48.466;7.950;2023-02-13T01:36:44;0.90;99.90
1137;DHT22;557;48.466;7.950;2023-02-13T01:39:32;1.00;99.90
1137;DHT22;557;48.466;7.950;2023-02-13T01:42:23;1.10;99.90
1137;DHT22;557;48.466;7.950;2023-02-13T01:45:22;1.10;99.90
1137;DHT22;557;48.466;7.950;2023-02-13T01:48:12;1.00;99.90
1137;DHT22;557;48.466;7.950;2023-02-13T01:51:05;1.00;99.90
1137;DHT22;557;48.466;7.950;2023-02-13T01:53:58;1.00;99.90
1137;DHT22;557;48.466;7.950;2023-02-13T01:56:48;1.00;99.90
1137;DHT22;557;48.466;7.950;2023-02-13T01:59:40;1.00;99.90
1137;DHT22;557;48.466;7.950;2023-02-13T02:02:30;1.20;99.90
1137;DHT22;557;48.466;7.950;2023-02-13T02:05:23;1.30;99.90
1137;DHT22;557;48.466;7.950;2023-02-13T02:08:13;1.20;99.90
1137;DHT22;557;48.466;7.950;2023-02-13T02:11:06;1.10;99.90
1137;DHT22;557;48.466;7.950;2023-02-13T02:13:57;1.00;99.90
1137;DHT22;557;48.466;7.950;2023-02-13T02:16:44;1.00;99.90
1137;DHT22;557;48.466;7.950;2023-02-13T02:19:35;0.90;99.90
1137;DHT22;557;48.466;7.950;2023-02-13T02:22:56;0.90;99.90
1137;DHT22;557;48.466;7.950;2023-02-13T02:26:14;0.80;99.90
1137;DHT22;557;48.466;7.950;2023-02-13T02:29:23;0.80;99.90
1137;DHT22;557;48.466;7.950;2023-02-13T02:32:35;0.80;99.90
1137;DHT22;557;48.466;7.950;2023-02-13T02:35:32;0.80;99.90
1137;DHT22;557;48.466;7.950;2023-02-13T02:38:30;0.80;99.90
1137;DHT22;557;48.466;7.950;2023-02-13T02:41:31;0.80;99.90
1137;DHT22;557;48.466;7.950;2023-02-13T02:44:34;0.70;99.90
1137;DHT22;557;48.466;7.950;2023-02-13T02:47:26;0.60;99.90
1137;DHT22;557;48.466;7.950;2023-02-13T02:50:38;0.70;99.90
1137;DHT22;557;48.466;7.950;2023-02-13T02:53:32;0.60;99.90
1137;DHT22;557;48.466;7.950;2023-02-13T02:56:24;0.60;99.90
1137;DHT22;557;48.466;7.950;2023-02-13T02:59:15;0.50;99.90
1137;DHT22;557;48.466;7.950;2023-02-13T03:02:22;0.50;99.90
1137;DHT22;557;48.466;7.950;2023-02-13T03:05:29;0.50;99.90
1137;DHT22;557;48.466;7.950;2023-02-13T03:08:36;0.50;99.90
1137;DHT22;557;48.466;7.950;2023-02-13T03:11:43;0.50;99.90
1137;DHT22;557;48.466;7.950;2023-02-13T03:14:49;0.40;99.90
1137;DHT22;557;48.466;7.950;2023-02-13T03:17:37;0.40;99.90
1137;DHT22;557;48.466;7.950;2023-02-13T03:20:45;0.40;99.90
1137;DHT22;557;48.466;7.950;2023-02-13T03:24:13;0.40;99.90
1137;DHT22;557;48.466;7.950;2023-02-13T03:27:08;0.30;99.90
1137;DHT22;557;48.466;7.950;2023-02-13T03:30:02;0.30;99.90
1137;DHT22;557;48.466;7.950;2023-02-13T03:33:00;0.30;99.90
1137;DHT22;557;48.466;7.950;2023-02-13T03:35:54;0.30;99.90
1137;DHT22;557;48.466;7.950;2023-02-13T03:39:07;0.30;99.90
1137;DHT22;557;48.466;7.950;2023-02-13T03:41:57;0.30;99.90
1137;DHT22;557;48.466;7.950;2023-02-13T03:44:52;0.30;99.90
1137;DHT22;557;48.466;7.950;2023-02-13T03:48:02;0.20;99.90
1137;DHT22;557;48.466;7.950;2023-02-13T03:50:56;0.20;99.90
1137;DHT22;557;48.466;7.950;2023-02-13T03:53:46;0.10;99.90
1137;DHT22;557;48.466;7.950;2023-02-13T03:56:39;0.10;99.90
1137;DHT22;557;48.466;7.950;2023-02-13T03:59:45;0.10;99.90
1137;DHT22;557;48.466;7.950;2023-02-13T04:02:34;0.00;99.90
1137;DHT22;557;48.466;7.950;2023-02-13T04:05:25;0.00;99.90
1137;DHT22;557;48.466;7.950;2023-02-13T04:08:14;-0.10;99.90
1137;DHT22;557;48.466;7.950;2023-02-13T04:11:07;-0.10;99.90
1137;DHT22;557;48.466;7.950;2023-02-13T04:13:58;-0.10;99.90
1137;DHT22;557;48.466;7.950;2023-02-13T04:16:50;-0.10;99.90
1137;DHT22;557;48.466;7.950;2023-02-13T04:19:38;-0.10;99.90
1137;DHT22;557;48.466;7.950;2023-02-13T04:22:26;-0.10;99.90
1137;DHT22;557;48.466;7.950;2023-02-13T04:25:15;-0.10;99.90
1137;DHT22;557;48.466;7.950;2023-02-13T04:28:03;-0.10;99.90
1137;DHT22;557;48.466;7.950;2023-02-13T04:30:52;0.00;99.90
1137;DHT22;557;48.466;7.950;2023-02-13T04:33:39;0.10;99.90
1137;DHT22;557;48.466;7.950;2023-02-13T04:36:27;0.00;99.90
1137;DHT22;557;48.466;7.950;2023-02-13T04:39:14;0.10;99.90
1137;DHT22;557;48.466;7.950;2023-02-13T04:42:01;0.10;99.90
1137;DHT22;557;48.466;7.950;2023-02-13T04:44:49;-0.10;99.90
1137;DHT22;557;48.466;7.950;2023-02-13T04:47:37;-0.10;99.90
1137;DHT22;557;48.466;7.950;2023-02-13T04:50:25;-0.10;99.90
1137;DHT22;557;48.466;7.950;2023-02-13T04:53:12;-0.10;99.90
1137;DHT22;557;48.466;7.950;2023-02-13T04:55:59;-0.20;99.90
1137;DHT22;557;48.466;7.950;2023-02-13T04:58:47;-0.30;99.90
1137;DHT22;557;48.466;7.950;2023-02-13T05:01:34;-0.30;99.90
1137;DHT22;557;48.466;7.950;2023-02-13T05:04:23;-0.30;99.90
1137;DHT22;557;48.466;7.950;2023-02-13T05:07:10;-0.30;99.90
1137;DHT22;557;48.466;7.950;2023-02-13T05:09:57;-0.30;99.90
1137;DHT22;557;48.466;7.950;2023-02-13T05:12:46;-0.30;99.90
1137;DHT22;557;48.466;7.950;2023-02-13T05:15:34;-0.30;99.90
1137;DHT22;557;48.466;7.950;2023-02-13T05:18:21;-0.30;99.90
1137;DHT22;557;48.466;7.950;2023-02-13T05:21:10;-0.40;99.90
1137;DHT22;557;48.466;7.950;2023-02-13T05:24:15;-0.40;99.90
1137;DHT22;557;48.466;7.950;2023-02-13T05:27:02;-0.40;99.90
1137;DHT22;557;48.466;7.950;2023-02-13T05:29:49;-0.40;99.90
1137;DHT22;557;48.466;7.950;2023-02-13T05:32:37;-0.50;99.90
1137;DHT22;557;48.466;7.950;2023-02-13T05:35:24;-0.40;99.90
1137;DHT22;557;48.466;7.950;2023-02-13T05:38:13;-0.40;99.90
1137;DHT22;557;48.466;7.950;2023-02-13T05:41:00;-0.40;99.90
1137;DHT22;557;48.466;7.950;2023-02-13T05:43:48;-0.40;99.90
1137;DHT22;557;48.466;7.950;2023-02-13T05:46:36;-0.30;99.90
1137;DHT22;557;48.466;7.950;2023-02-13T05:49:24;-0.20;99.90
1137;DHT22;557;48.466;7.950;2023-02-13T05:52:11;-0.30;99.90
1137;DHT22;557;48.466;7.950;2023-02-13T05:55:00;-0.30;99.90
1137;DHT22;557;48.466;7.950;2023-02-13T05:57:47;-0.30;99.90
1137;DHT22;557;48.466;7.950;2023-02-13T06:00:35;-0.40;99.90
1137;DHT22;557;48.466;7.950;2023-02-13T06:03:22;-0.40;99.90
1137;DHT22;557;48.466;7.950;2023-02-13T06:06:09;-0.40;99.90
1137;DHT22;557;48.466;7.950;2023-02-13T06:08:57;-0.40;99.90
1137;DHT22;557;48.466;7.950;2023-02-13T06:11:45;-0.50;99.90
1137;DHT22;557;48.466;7.950;2023-02-13T06:14:33;-0.70;99.90
1137;DHT22;557;48.466;7.950;2023-02-13T06:17:20;-0.80;99.90
1137;DHT22;557;48.466;7.950;2023-02-13T06:20:08;-0.90;99.90
1137;DHT22;557;48.466;7.950;2023-02-13T06:22:56;-0.90;99.90
1137;DHT22;557;48.466;7.950;2023-02-13T06:25:43;-0.80;99.90
1137;DHT22;557;48.466;7.950;2023-02-13T06:28:33;-0.80;99.90
1137;DHT22;557;48.466;7.950;2023-02-13T06:31:21;-0.70;99.90
1137;DHT22;557;48.466;7.950;2023-02-13T06:34:08;-0.70;99.90
1137;DHT22;557;48.466;7.950;2023-02-13T06:36:56;-0.60;99.90
1137;DHT22;557;48.466;7.950;2023-02-13T06:39:43;-0.60;99.90
1137;DHT22;557;48.466;7.950;2023-02-13T06:42:30;-0.60;99.90
1137;DHT22;557;48.466;7.950;2023-02-13T06:45:19;-0.60;99.90
1137;DHT22;557;48.466;7.950;2023-02-13T06:48:07;-0.50;99.90
1137;DHT22;557;48.466;7.950;2023-02-13T06:50:54;-0.50;99.90
1137;DHT22;557;48.466;7.950;2023-02-13T06:53:41;-0.50;99.90
1137;DHT22;557;48.466;7.950;2023-02-13T06:56:29;-0.50;99.90
1137;DHT22;557;48.466;7.950;2023-02-13T06:59:17;-0.40;99.90
1137;DHT22;557;48.466;7.950;2023-02-13T07:02:08;-0.40;99.90
1137;DHT22;557;48.466;7.950;2023-02-13T07:04:56;-0.30;99.90
1137;DHT22;557;48.466;7.950;2023-02-13T07:07:44;-0.30;99.90
1137;DHT22;557;48.466;7.950;2023-02-13T07:10:31;-0.30;99.90
1137;DHT22;557;48.466;7.950;2023-02-13T07:13:18;-0.20;99.90
1137;DHT22;557;48.466;7.950;2023-02-13T07:16:06;-0.20;99.90
1137;DHT22;557;48.466;7.950;2023-02-13T07:18:54;-0.20;99.90
1137;DHT22;557;48.466;7.950;2023-02-13T07:21:42;0.00;99.90
1137;DHT22;557;48.466;7.950;2023-02-13T07:24:29;0.20;99.90
1137;DHT22;557;48.466;7.950;2023-02-13T07:27:18;0.30;99.90
1137;DHT22;557;48.466;7.950;2023-02-13T07:30:06;0.40;99.90
1137;DHT22;557;48.466;7.950;2023-02-13T07:32:58;0.60;99.90
1137;DHT22;557;48.466;7.950;2023-02-13T07:35:47;0.70;99.90
1137;DHT22;557;48.466;7.950;2023-02-13T07:38:35;0.50;99.90
1137;DHT22;557;48.466;7.950;2023-02-13T07:41:22;0.60;99.90
1137;DHT22;557;48.466;7.950;2023-02-13T07:44:11;0.40;99.90
1137;DHT22;557;48.466;7.950;2023-02-13T07:46:58;0.30;99.90
1137;DHT22;557;48.466;7.950;2023-02-13T07:49:46;0.30;99.90
1137;DHT22;557;48.466;7.950;2023-02-13T07:52:34;0.30;99.90
1137;DHT22;557;48.466;7.950;2023-02-13T07:55:23;0.40;99.90
1137;DHT22;557;48.466;7.950;2023-02-13T07:58:10;0.40;99.90
1137;DHT22;557;48.466;7.950;2023-02-13T08:00:57;0.40;99.90
1137;DHT22;557;48.466;7.950;2023-02-13T08:03:54;0.50;99.90
1137;DHT22;557;48.466;7.950;2023-02-13T08:06:41;0.60;99.90
1137;DHT22;557;48.466;7.950;2023-02-13T08:09:33;0.80;99.90
1137;DHT22;557;48.466;7.950;2023-02-13T08:12:38;1.00;99.90
1137;DHT22;557;48.466;7.950;2023-02-13T08:15:27;1.20;99.90
1137;DHT22;557;48.466;7.950;2023-02-13T08:18:14;1.30;99.90
1137;DHT22;557;48.466;7.950;2023-02-13T08:21:01;1.30;99.90
1137;DHT22;557;48.466;7.950;2023-02-13T08:23:48;1.40;99.90
1137;DHT22;557;48.466;7.950;2023-02-13T08:26:38;1.40;99.90
1137;DHT22;557;48.466;7.950;2023-02-13T08:29:26;1.50;99.90
1137;DHT22;557;48.466;7.950;2023-02-13T08:32:13;1.50;99.90
1137;DHT22;557;48.466;7.950;2023-02-13T08:35:01;1.50;99.90
1137;DHT22;557;48.466;7.950;2023-02-13T08:37:48;1.50;99.90
1137;DHT22;557;48.466;7.950;2023-02-13T08:40:35;1.60;99.90
1137;DHT22;557;48.466;7.950;2023-02-13T08:43:24;1.60;99.90
1137;DHT22;557;48.466;7.950;2023-02-13T08:46:11;1.70;99.90
1137;DHT22;557;48.466;7.950;2023-02-13T08:48:59;1.80;99.90
1137;DHT22;557;48.466;7.950;2023-02-13T08:51:46;1.80;99.90
1137;DHT22;557;48.466;7.950;2023-02-13T08:54:33;1.80;99.90
1137;DHT22;557;48.466;7.950;2023-02-13T08:57:21;1.80;99.90
1137;DHT22;557;48.466;7.950;2023-02-13T09:00:10;1.90;99.90
1137;DHT22;557;48.466;7.950;2023-02-13T09:03:00;2.00;99.90
1137;DHT22;557;48.466;7.950;2023-02-13T09:05:48;2.00;99.90
1137;DHT22;557;48.466;7.950;2023-02-13T09:08:35;2.10;99.90
1137;DHT22;557;48.466;7.950;2023-02-13T09:11:23;2.30;99.90
1137;DHT22;557;48.466;7.950;2023-02-13T09:14:10;2.50;99.90
1137;DHT22;557;48.466;7.950;2023-02-13T09:16:59;2.60;99.90
1137;DHT22;557;48.466;7.950;2023-02-13T09:19:46;2.70;99.90
1137;DHT22;557;48.466;7.950;2023-02-13T09:22:33;2.80;99.90
1137;DHT22;557;48.466;7.950;2023-02-13T09:25:21;2.50;99.90
1137;DHT22;557;48.466;7.950;2023-02-13T09:28:08;2.30;99.90
1137;DHT22;557;48.466;7.950;2023-02-13T09:30:56;2.10;99.90
1137;DHT22;557;48.466;7.950;2023-02-13T09:33:45;2.10;99.90
1137;DHT22;557;48.466;7.950;2023-02-13T09:36:33;2.10;99.90
1137;DHT22;557;48.466;7.950;2023-02-13T09:39:21;2.10;99.90
1137;DHT22;557;48.466;7.950;2023-02-13T09:42:16;2.30;99.90
1137;DHT22;557;48.466;7.950;2023-02-13T09:45:06;2.40;99.90
1137;DHT22;557;48.466;7.950;2023-02-13T09:47:54;2.40;99.90
1137;DHT22;557;48.466;7.950;2023-02-13T09:50:42;2.40;99.90
1137;DHT22;557;48.466;7.950;2023-02-13T09:53:30;2.30;99.90
1137;DHT22;557;48.466;7.950;2023-02-13T09:56:31;2.40;99.90
1137;DHT22;557;48.466;7.950;2023-02-13T09:59:34;2.70;99.90
1137;DHT22;557;48.466;7.950;2023-02-13T10:02:39;3.10;99.90
1137;DHT22;557;48.466;7.950;2023-02-13T10:05:39;3.30;99.90
1137;DHT22;557;48.466;7.950;2023-02-13T10:09:03;3.00;99.90
1137;DHT22;557;48.466;7.950;2023-02-13T10:15:20;3.00;99.90
1137;DHT22;557;48.466;7.950;2023-02-13T10:18:12;3.00;99.90
1137;DHT22;557;48.466;7.950;2023-02-13T10:21:03;3.30;99.90
1137;DHT22;557;48.466;7.950;2023-02-13T10:23:56;3.60;99.90
1137;DHT22;557;48.466;7.950;2023-02-13T10:26:46;3.70;99.90
1137;DHT22;557;48.466;7.950;2023-02-13T10:29:38;3.60;99.90
1137;DHT22;557;48.466;7.950;2023-02-13T10:32:57;3.80;99.90
1137;DHT22;557;48.466;7.950;2023-02-13T10:36:02;4.20;99.90
1137;DHT22;557;48.466;7.950;2023-02-13T10:38:55;4.50;99.90
1137;DHT22;557;48.466;7.950;2023-02-13T10:41:50;4.80;99.90
1137;DHT22;557;48.466;7.950;2023-02-13T10:44:48;5.00;99.90
1137;DHT22;557;48.466;7.950;2023-02-13T10:47:55;5.10;90.50
1137;DHT22;557;48.466;7.950;2023-02-13T10:50:47;5.20;76.80
1137;DHT22;557;48.466;7.950;2023-02-13T10:53:48;5.20;46.50
1137;DHT22;557;48.466;7.950;2023-02-13T10:56:41;5.30;65.10
1137;DHT22;557;48.466;7.950;2023-02-13T10:59:44;5.40;43.60
1137;DHT22;557;48.466;7.950;2023-02-13T11:02:34;5.50;9.50
1137;DHT22;557;48.466;7.950;2023-02-13T11:05:23;5.30;1.00
1137;DHT22;557;48.466;7.950;2023-02-13T11:08:17;5.30;19.40
1137;DHT22;557;48.466;7.950;2023-02-13T11:11:27;5.60;35.10
1137;DHT22;557;48.466;7.950;2023-02-13T11:14:17;5.80;10.40
1137;DHT22;557;48.466;7.950;2023-02-13T11:17:11;6.00;1.00
1137;DHT22;557;48.466;7.950;2023-02-13T11:20:04;6.00;1.00
1137;DHT22;557;48.466;7.950;2023-02-13T11:22:54;6.00;1.00
1137;DHT22;557;48.466;7.950;2023-02-13T11:25:53;5.90;1.00
1137;DHT22;557;48.466;7.950;2023-02-13T11:28:47;5.90;1.00
1137;DHT22;557;48.466;7.950;2023-02-13T11:31:36;5.70;1.00
1137;DHT22;557;48.466;7.950;2023-02-13T11:34:27;5.70;1.00
1137;DHT22;557;48.466;7.950;2023-02-13T11:37:24;5.90;1.00
1137;DHT22;557;48.466;7.950;2023-02-13T11:40:28;5.90;1.00
1137;DHT22;557;48.466;7.950;2023-02-13T11:43:25;5.80;1.00
1137;DHT22;557;48.466;7.950;2023-02-13T11:46:18;5.70;1.00
1137;DHT22;557;48.466;7.950;2023-02-13T11:49:14;5.80;1.00
1137;DHT22;557;48.466;7.950;2023-02-13T11:52:06;5.70;1.00
1137;DHT22;557;48.466;7.950;2023-02-13T11:54:59;5.70;1.00
1137;DHT22;557;48.466;7.950;2023-02-13T11:57:56;5.80;1.00
1137;DHT22;557;48.466;7.950;2023-02-13T12:00:44;5.70;1.00
1137;DHT22;557;48.466;7.950;2023-02-13T12:03:32;5.70;1.00
1137;DHT22;557;48.466;7.950;2023-02-13T12:06:19;5.90;1.00
1137;DHT22;557;48.466;7.950;2023-02-13T12:09:13;6.00;1.00
1137;DHT22;557;48.466;7.950;2023-02-13T12:12:02;5.90;1.00
1137;DHT22;557;48.466;7.950;2023-02-13T12:14:50;5.70;1.00
1137;DHT22;557;48.466;7.950;2023-02-13T12:17:40;5.60;1.00
1137;DHT22;557;48.466;7.950;2023-02-13T12:20:36;5.70;1.00
1137;DHT22;557;48.466;7.950;2023-02-13T12:23:31;5.80;1.00
1137;DHT22;557;48.466;7.950;2023-02-13T12:26:28;5.80;1.00
1137;DHT22;557;48.466;7.950;2023-02-13T12:29:44;5.70;1.00
1137;DHT22;557;48.466;7.950;2023-02-13T12:32:45;5.50;1.00
1137;DHT22;557;48.466;7.950;2023-02-13T12:35:45;5.50;1.00
1137;DHT22;557;48.466;7.950;2023-02-13T12:38:44;5.40;1.00
1137;DHT22;557;48.466;7.950;2023-02-13T12:41:43;5.50;1.00
1137;DHT22;557;48.466;7.950;2023-02-13T12:45:02;5.40;1.00
1137;DHT22;557;48.466;7.950;2023-02-13T12:48:03;5.40;1.00
1137;DHT22;557;48.466;7.950;2023-02-13T12:51:02;5.10;1.00
1137;DHT22;557;48.466;7.950;2023-02-13T12:54:22;5.20;6.90
1137;DHT22;557;48.466;7.950;2023-02-13T12:57:24;5.40;1.00
1137;DHT22;557;48.466;7.950;2023-02-13T13:00:21;5.50;1.00
1137;DHT22;557;48.466;7.950;2023-02-13T13:03:24;5.50;1.00
1137;DHT22;557;48.466;7.950;2023-02-13T13:06:35;5.60;1.00
1137;DHT22;557;48.466;7.950;2023-02-13T13:09:54;5.50;1.00
1137;DHT22;557;48.466;7.950;2023-02-13T13:12:50;5.60;1.00
1137;DHT22;557;48.466;7.950;2023-02-13T13:15:44;5.50;1.00
1137;DHT22;557;48.466;7.950;2023-02-13T13:18:45;5.50;1.00
1137;DHT22;557;48.466;7.950;2023-02-13T13:21:40;5.50;1.00
1137;DHT22;557;48.466;7.950;2023-02-13T13:24:50;5.50;1.00
1137;DHT22;557;48.466;7.950;2023-02-13T13:27:42;5.50;1.00
1137;DHT22;557;48.466;7.950;2023-02-13T13:30:33;5.50;1.00
1137;DHT22;557;48.466;7.950;2023-02-13T13:33:22;5.50;1.00
1137;DHT22;557;48.466;7.950;2023-02-13T13:36:15;5.50;1.00
1137;DHT22;557;48.466;7.950;2023-02-13T13:39:12;5.50;1.00
1137;DHT22;557;48.466;7.950;2023-02-13T13:42:10;5.40;1.00
1137;DHT22;557;48.466;7.950;2023-02-13T13:45:13;5.50;1.00
1137;DHT22;557;48.466;7.950;2023-02-13T13:48:32;5.40;1.00
1137;DHT22;557;48.466;7.950;2023-02-13T13:51:20;5.40;1.00
1137;DHT22;557;48.466;7.950;2023-02-13T13:54:22;5.40;2.60
1137;DHT22;557;48.466;7.950;2023-02-13T13:57:11;5.30;1.00
1137;DHT22;557;48.466;7.950;2023-02-13T14:03:24;5.20;1.00
1137;DHT22;557;48.466;7.950;2023-02-13T14:06:21;5.00;15.60
1137;DHT22;557;48.466;7.950;2023-02-13T14:09:36;5.00;30.70
1137;DHT22;557;48.466;7.950;2023-02-13T14:12:45;5.00;34.60
1137;DHT22;557;48.466;7.950;2023-02-13T14:15:50;4.90;51.70
1137;DHT22;557;48.466;7.950;2023-02-13T14:18:44;5.00;67.10
1137;DHT22;557;48.466;7.950;2023-02-13T14:21:32;5.00;56.70
1137;DHT22;557;48.466;7.950;2023-02-13T14:24:21;5.00;55.80
1137;DHT22;557;48.466;7.950;2023-02-13T14:27:20;5.00;62.20
1137;DHT22;557;48.466;7.950;2023-02-13T14:30:26;5.10;70.50
1137;DHT22;557;48.466;7.950;2023-02-13T14:33:23;5.00;68.30
1137;DHT22;557;48.466;7.950;2023-02-13T14:36:20;5.00;61.70
1137;DHT22;557;48.466;7.950;2023-02-13T14:39:19;5.00;83.10
1137;DHT22;557;48.466;7.950;2023-02-13T14:42:23;5.00;99.90
1137;DHT22;557;48.466;7.950;2023-02-13T14:45:14;4.90;99.90
1137;DHT22;557;48.466;7.950;2023-02-13T14:48:06;5.00;99.90
1137;DHT22;557;48.466;7.950;2023-02-13T14:50:57;5.00;93.20
1137;DHT22;557;48.466;7.950;2023-02-13T14:53:50;4.90;99.10
1137;DHT22;557;48.466;7.950;2023-02-13T14:56:38;4.90;99.90
1137;DHT22;557;48.466;7.950;2023-02-13T14:59:29;5.00;99.90
1137;DHT22;557;48.466;7.950;2023-02-13T15:02:22;4.90;99.90
1137;DHT22;557;48.466;7.950;2023-02-13T15:05:13;4.90;99.90
1137;DHT22;557;48.466;7.950;2023-02-13T15:08:05;4.80;99.90
1137;DHT22;557;48.466;7.950;2023-02-13T15:10:56;4.90;99.90
1137;DHT22;557;48.466;7.950;2023-02-13T15:13:43;5.00;99.90
1137;DHT22;557;48.466;7.950;2023-02-13T15:16:31;5.00;99.90
1137;DHT22;557;48.466;7.950;2023-02-13T15:19:20;4.90;99.90
1137;DHT22;557;48.466;7.950;2023-02-13T15:22:17;4.80;99.90
1137;DHT22;557;48.466;7.950;2023-02-13T15:25:07;4.60;99.90
1137;DHT22;557;48.466;7.950;2023-02-13T15:27:56;4.50;99.90
1137;DHT22;557;48.466;7.950;2023-02-13T15:30:53;4.60;99.90
1137;DHT22;557;48.466;7.950;2023-02-13T15:33:44;4.60;99.90
1137;DHT22;557;48.466;7.950;2023-02-13T15:36:35;4.60;99.90
1137;DHT22;557;48.466;7.950;2023-02-13T15:39:27;4.50;99.90
1137;DHT22;557;48.466;7.950;2023-02-13T15:42:15;4.40;99.90
1137;DHT22;557;48.466;7.950;2023-02-13T15:45:05;4.40;99.90
1137;DHT22;557;48.466;7.950;2023-02-13T15:47:52;4.40;99.90
1137;DHT22;557;48.466;7.950;2023-02-13T15:50:41;4.40;99.90
1137;DHT22;557;48.466;7.950;2023-02-13T15:53:29;4.40;99.90
1137;DHT22;557;48.466;7.950;2023-02-13T15:56:16;4.40;99.90
1137;DHT22;557;48.466;7.950;2023-02-13T15:59:04;4.50;99.90
1137;DHT22;557;48.466;7.950;2023-02-13T16:01:53;4.40;99.90
1137;DHT22;557;48.466;7.950;2023-02-13T16:04:41;4.40;99.90
1137;DHT22;557;48.466;7.950;2023-02-13T16:07:29;4.30;99.90
1137;DHT22;557;48.466;7.950;2023-02-13T16:10:25;4.40;99.90
1137;DHT22;557;48.466;7.950;2023-02-13T16:13:15;4.30;99.90
1137;DHT22;557;48.466;7.950;2023-02-13T16:16:08;4.30;99.90
1137;DHT22;557;48.466;7.950;2023-02-13T16:18:58;4.30;99.90
1137;DHT22;557;48.466;7.950;2023-02-13T16:21:47;4.10;99.90
1137;DHT22;557;48.466;7.950;2023-02-13T16:24:35;4.00;99.90
1137;DHT22;557;48.466;7.950;2023-02-13T16:27:25;4.10;99.90
1137;DHT22;557;48.466;7.950;2023-02-13T16:30:31;4.00;99.90
1137;DHT22;557;48.466;7.950;2023-02-13T16:33:22;3.90;99.90
1137;DHT22;557;48.466;7.950;2023-02-13T16:36:27;3.90;99.90
1137;DHT22;557;48.466;7.950;2023-02-13T16:39:19;3.90;99.90
1137;DHT22;557;48.466;7.950;2023-02-13T16:42:16;3.90;99.90
1137;DHT22;557;48.466;7.950;2023-02-13T16:45:20;3.90;99.90
1137;DHT22;557;48.466;7.950;2023-02-13T16:48:09;3.80;99.90
1137;DHT22;557;48.466;7.950;2023-02-13T16:50:59;3.80;99.90
1137;DHT22;557;48.466;7.950;2023-02-13T16:53:55;3.80;99.90
1137;DHT22;557;48.466;7.950;2023-02-13T16:56:46;3.80;99.90
1137;DHT22;557;48.466;7.950;2023-02-13T16:59:55;3.80;99.90
1137;DHT22;557;48.466;7.950;2023-02-13T17:02:45;3.80;99.90
1137;DHT22;557;48.466;7.950;2023-02-13T17:08:57;3.80;99.90
1137;DHT22;557;48.466;7.950;2023-02-13T17:11:49;3.80;99.90
1137;DHT22;557;48.466;7.950;2023-02-13T17:14:36;3.80;99.90
1137;DHT22;557;48.466;7.950;2023-02-13T17:17:26;3.70;99.90
1137;DHT22;557;48.466;7.950;2023-02-13T17:20:16;3.50;99.90
1137;DHT22;557;48.466;7.950;2023-02-13T17:23:05;3.60;99.90
1137;DHT22;557;48.466;7.950;2023-02-13T17:25:54;3.60;99.90
1137;DHT22;557;48.466;7.950;2023-02-13T17:28:42;3.60;99.90
1137;DHT22;557;48.466;7.950;2023-02-13T17:31:29;3.50;99.90
1137;DHT22;557;48.466;7.950;2023-02-13T17:34:17;3.50;99.90
1137;DHT22;557;48.466;7.950;2023-02-13T17:37:11;3.50;99.90
1137;DHT22;557;48.466;7.950;2023-02-13T17:40:01;3.50;99.90
1137;DHT22;557;48.466;7.950;2023-02-13T17:42:51;3.60;99.90
1137;DHT22;557;48.466;7.950;2023-02-13T17:45:39;3.50;99.90
1137;DHT22;557;48.466;7.950;2023-02-13T17:48:27;3.60;99.90
1137;DHT22;557;48.466;7.950;2023-02-13T17:51:14;3.60;99.90
1137;DHT22;557;48.466;7.950;2023-02-13T17:54:01;3.50;99.90
1137;DHT22;557;48.466;7.950;2023-02-13T17:56:49;3.40;99.90
1137;DHT22;557;48.466;7.950;2023-02-13T17:59:38;3.30;99.90
1137;DHT22;557;48.466;7.950;2023-02-13T18:02:25;3.20;99.90
1137;DHT22;557;48.466;7.950;2023-02-13T18:05:13;3.10;99.90
1137;DHT22;557;48.466;7.950;2023-02-13T18:08:01;3.00;99.90
1137;DHT22;557;48.466;7.950;2023-02-13T18:10:49;3.00;99.90
1137;DHT22;557;48.466;7.950;2023-02-13T18:13:36;2.90;99.90
1137;DHT22;557;48.466;7.950;2023-02-13T18:16:27;2.90;99.90
1137;DHT22;557;48.466;7.950;2023-02-13T18:19:14;2.90;99.90
1137;DHT22;557;48.466;7.950;2023-02-13T18:22:01;2.80;99.90
1137;DHT22;557;48.466;7.950;2023-02-13T18:24:49;2.80;99.90
1137;DHT22;557;48.466;7.950;2023-02-13T18:27:37;2.80;99.90
1137;DHT22;557;48.466;7.950;2023-02-13T18:30:24;2.80;99.90
1137;DHT22;557;48.466;7.950;2023-02-13T18:33:13;2.90;99.90
1137;DHT22;557;48.466;7.950;2023-02-13T18:36:01;2.90;99.90
1137;DHT22;557;48.466;7.950;2023-02-13T18:38:49;2.90;99.90
1137;DHT22;557;48.466;7.950;2023-02-13T18:41:37;2.90;99.90
1137;DHT22;557;48.466;7.950;2023-02-13T18:44:25;2.80;99.90
1137;DHT22;557;48.466;7.950;2023-02-13T18:47:14;2.80;99.90
1137;DHT22;557;48.466;7.950;2023-02-13T18:50:04;2.80;99.90
1137;DHT22;557;48.466;7.950;2023-02-13T18:52:51;2.70;99.90
1137;DHT22;557;48.466;7.950;2023-02-13T18:55:39;2.80;99.90
1137;DHT22;557;48.466;7.950;2023-02-13T18:58:26;2.70;99.90
1137;DHT22;557;48.466;7.950;2023-02-13T19:01:15;2.70;99.90
1137;DHT22;557;48.466;7.950;2023-02-13T19:04:04;2.60;99.90
1137;DHT22;557;48.466;7.950;2023-02-13T19:06:53;2.60;99.90
1137;DHT22;557;48.466;7.950;2023-02-13T19:09:41;2.60;99.90
1137;DHT22;557;48.466;7.950;2023-02-13T19:12:29;2.50;99.90
1137;DHT22;557;48.466;7.950;2023-02-13T19:15:16;2.50;99.90
1137;DHT22;557;48.466;7.950;2023-02-13T19:18:04;2.50;99.90
1137;DHT22;557;48.466;7.950;2023-02-13T19:20:51;2.50;99.90
1137;DHT22;557;48.466;7.950;2023-02-13T19:23:45;2.50;99.90
1137;DHT22;557;48.466;7.950;2023-02-13T19:26:32;2.40;99.90
1137;DHT22;557;48.466;7.950;2023-02-13T19:29:20;2.40;99.90
1137;DHT22;557;48.466;7.950;2023-02-13T19:32:07;2.30;99.90